Startpagina
METAR-TAF:

METAR-TAF

Vliegvelden :

Tete, Mozambique

breedte: 16-06S, lengte: 033-38E, hoogte: 160 m

Actueel weer

Dit bericht is 54 minuten geleden gemaakt, om 04:00 UTC
Weinig wind
Temperatuur 11°C
Vochtigheid 100%
Druk 1024 hPa
Zicht: 5000 m
nevel,

METAR: FQTT 130400Z 00000KT 5000 BR NSC 11/11 Q1024

Tijdstip: 06:54 (04:54 UTC)

Verwachting

Dit bericht is 12 uur en het 54 minuten geleden gemaakt, om 16:00 UTC
Verwachting geldig van 12 om 18 UTC tot 13 om 18 UTC
Wind 6 kt uit het zuidoosten
Zicht 10 km of meer
Verspreide wolken op 2000 ft
Wijzigt naar
van 12 om 21 UTC tot 12 om 23 UTC
Wind 1 kt uit variabele richting
Wijzigt naar
van 13 om 07 UTC tot 13 om 09 UTC
Wind 5 kt uit het zuiden

TAF: FQTT 121600Z 1218/1318 14006KT 9999 SCT020 TX28/1313Z TN16/1302Z BECMG 1221/1223 VRB01KT BECMG 1307/1309 17005KT

Waarnemingen en weersverwachtingen van meer dan 4000 vliegvelden (METAR en TAF).

De beschikbare stations zijn de gele en rode punten op de kaart.

Ga met uw muis naar het station om de naam te zien.

Klik dan om waarnemingen en weersverwachtingen te zien.

kaart wijzigen: klik op de groene knoppen met een zwart kruis om in te zoomen, op de groene knop met een streepje om uit te zoomen of op de groene pijlen voor aangrenzende kaarten.


METAR-TAF: